GHB - Wetterstation

--- Lilienthal-Gleiter-Unterfranken e.V. --- (Impressum)
-> Windverlauf / Grafik
-> Barometerverlauf / Grafik
-> Wetter Links
-> WS GHB auf Windy



Bitte Uhrzeit beachten ob Daten aktuell sind!

Anzeige der letzten 100 Messwerte (~8 Stunden)
Datum Zeit Wind Richtung Richtung Böen Temperatur Feuchte Luftdruck
29.07.2021 05:23:11 14.98 km/h 208.9 ° S-SW 19.08 km/h 14.8 °C 61 % 1014.12 hPa
29.07.2021 05:18:28 14.32 km/h 212.7 ° S-SW 21.24 km/h 14.8 °C 60.5 % 1014.12 hPa
29.07.2021 05:13:45 14 km/h 212.5 ° S-SW 19.8 km/h 14.8 °C 61 % 1014.22 hPa
29.07.2021 05:09:02 15.89 km/h 215.7 ° SW 21.96 km/h 14.8 °C 61 % 1014.12 hPa
29.07.2021 05:04:19 17.16 km/h 210.4 ° S-SW 20.52 km/h 14.7 °C 61 % 1014.02 hPa
29.07.2021 04:59:36 15.88 km/h 216.1 ° SW 20.16 km/h 14.6 °C 61 % 1014.02 hPa
29.07.2021 04:54:53 14.01 km/h 213.8 ° SW 17.28 km/h 14.5 °C 61.5 % 1014.02 hPa
29.07.2021 04:50:10 14.19 km/h 210.6 ° S-SW 19.44 km/h 14.5 °C 61 % 1014.12 hPa
29.07.2021 04:45:27 14.05 km/h 212.1 ° S-SW 16.92 km/h 14.4 °C 61.5 % 1014.02 hPa
29.07.2021 04:40:44 12.73 km/h 214.4 ° SW 16.92 km/h 14.3 °C 60.5 % 1014.02 hPa
29.07.2021 04:36:01 11.9 km/h 211.5 ° S-SW 14.76 km/h 14.3 °C 61 % 1014.12 hPa
29.07.2021 04:31:18 9.91 km/h 206.6 ° S-SW 15.84 km/h 14.3 °C 61 % 1014.12 hPa
29.07.2021 04:26:35 7.43 km/h 206.6 ° S-SW 9 km/h 14.5 °C 60.5 % 1014.22 hPa
29.07.2021 04:21:52 7.41 km/h 205.8 ° S-SW 10.44 km/h 14.6 °C 60.5 % 1014.32 hPa
29.07.2021 04:17:08 11.33 km/h 214.8 ° SW 15.84 km/h 14.7 °C 61 % 1014.32 hPa
29.07.2021 04:12:25 9.93 km/h 212.7 ° S-SW 14.04 km/h 14.7 °C 61.5 % 1014.22 hPa
29.07.2021 04:07:42 12.69 km/h 221.8 ° SW 14.76 km/h 14.5 °C 61 % 1014.12 hPa
29.07.2021 04:02:59 11.04 km/h 224.3 ° SW 14.76 km/h 14.4 °C 61 % 1014.12 hPa
29.07.2021 03:58:16 10.28 km/h 221.8 ° SW 13.68 km/h 14.2 °C 61 % 1014.22 hPa
29.07.2021 03:53:33 9.04 km/h 218.4 ° SW 10.08 km/h 14.1 °C 61 % 1014.22 hPa
29.07.2021 03:48:50 8.43 km/h 218.6 ° SW 10.08 km/h 14.1 °C 61 % 1014.22 hPa
29.07.2021 03:44:07 7.34 km/h 208.9 ° S-SW 8.64 km/h 14.1 °C 61 % 1014.32 hPa
29.07.2021 03:39:24 9.31 km/h 212.7 ° S-SW 10.8 km/h 14.2 °C 61 % 1014.32 hPa
29.07.2021 03:34:41 8.09 km/h 218 ° SW 10.8 km/h 14.2 °C 61 % 1014.32 hPa
29.07.2021 03:29:57 8.08 km/h 216.7 ° SW 9.72 km/h 14.3 °C 61.5 % 1014.22 hPa
29.07.2021 03:25:14 6.76 km/h 207.7 ° S-SW 8.64 km/h 14.3 °C 60.5 % 1014.32 hPa
29.07.2021 03:20:31 6.07 km/h 214.2 ° SW 9 km/h 14.5 °C 61 % 1014.32 hPa
29.07.2021 03:15:47 7.14 km/h 212.7 ° S-SW 8.28 km/h 14.6 °C 61 % 1014.42 hPa
29.07.2021 03:11:04 9.12 km/h 211.3 ° S-SW 11.88 km/h 14.6 °C 61 % 1014.32 hPa
29.07.2021 03:06:21 10.03 km/h 218.6 ° SW 12.96 km/h 14.6 °C 61 % 1014.32 hPa
29.07.2021 03:01:38 9.89 km/h 216.9 ° SW 11.16 km/h 14.6 °C 61 % 1014.32 hPa
29.07.2021 02:56:54 8.18 km/h 213.6 ° S-SW 10.44 km/h 14.6 °C 61 % 1014.42 hPa
29.07.2021 02:52:11 7.17 km/h 219.1 ° SW 9.36 km/h 14.7 °C 61 % 1014.52 hPa
29.07.2021 02:47:28 6.29 km/h 214.2 ° SW 9 km/h 14.7 °C 61 % 1014.52 hPa
29.07.2021 02:42:44 7.69 km/h 225.1 ° SW 10.08 km/h 14.8 °C 61 % 1014.52 hPa
29.07.2021 02:38:01 7.22 km/h 217.6 ° SW 10.08 km/h 14.8 °C 60.5 % 1014.52 hPa
29.07.2021 02:33:18 7.6 km/h 223.7 ° SW 9 km/h 14.9 °C 61 % 1014.72 hPa
29.07.2021 02:28:35 7.26 km/h 214 ° SW 9 km/h 15 °C 61 % 1014.62 hPa
29.07.2021 02:23:51 7.69 km/h 220.3 ° SW 9 km/h 15 °C 60.5 % 1014.72 hPa
29.07.2021 02:19:08 8.46 km/h 222 ° SW 11.88 km/h 15.1 °C 60.5 % 1014.62 hPa
29.07.2021 02:14:25 8.57 km/h 217.8 ° SW 10.08 km/h 15.1 °C 61 % 1014.82 hPa
29.07.2021 02:09:41 8.22 km/h 215.7 ° SW 12.24 km/h 15.2 °C 60.5 % 1014.72 hPa
29.07.2021 02:04:58 8.43 km/h 218.2 ° SW 10.44 km/h 15.3 °C 60.5 % 1014.82 hPa
29.07.2021 02:00:15 8.28 km/h 219.1 ° SW 11.88 km/h 15.4 °C 60.5 % 1014.82 hPa
29.07.2021 01:55:31 10.75 km/h 212.3 ° S-SW 14.04 km/h 15.5 °C 60.5 % 1014.92 hPa
29.07.2021 01:50:48 11.55 km/h 218.6 ° SW 15.84 km/h 15.5 °C 60.5 % 1014.82 hPa
29.07.2021 01:46:05 10.51 km/h 219.7 ° SW 12.96 km/h 15.5 °C 60.5 % 1014.92 hPa
29.07.2021 01:41:21 12.68 km/h 221.2 ° SW 15.12 km/h 15.5 °C 60.5 % 1014.92 hPa
29.07.2021 01:36:38 12.89 km/h 227.7 ° SW 15.12 km/h 15.5 °C 60.5 % 1014.92 hPa
29.07.2021 01:31:55 10.94 km/h 219.1 ° SW 14.4 km/h 15.5 °C 60.5 % 1014.82 hPa
29.07.2021 01:27:12 12.79 km/h 222.8 ° SW 16.92 km/h 15.5 °C 60 % 1014.92 hPa
29.07.2021 01:22:28 13.18 km/h 219.1 ° SW 16.2 km/h 15.5 °C 60.5 % 1014.72 hPa
29.07.2021 01:17:45 15.82 km/h 222.2 ° SW 18 km/h 15.4 °C 60 % 1014.62 hPa
29.07.2021 01:13:02 13.21 km/h 213.6 ° S-SW 15.84 km/h 15.4 °C 60.5 % 1014.62 hPa
29.07.2021 01:08:19 14.87 km/h 214.8 ° SW 19.08 km/h 15.4 °C 60.5 % 1014.62 hPa
29.07.2021 01:03:36 13.76 km/h 215.9 ° SW 16.92 km/h 15.3 °C 60.5 % 1014.62 hPa
29.07.2021 00:58:53 10.88 km/h 211.9 ° S-SW 15.84 km/h 15.3 °C 60.5 % 1014.72 hPa
29.07.2021 00:54:09 11.38 km/h 217.2 ° SW 15.48 km/h 15.3 °C 60.5 % 1014.72 hPa
29.07.2021 00:49:26 10.95 km/h 212.3 ° S-SW 14.76 km/h 15.4 °C 60.5 % 1014.72 hPa
29.07.2021 00:44:43 11.83 km/h 213.4 ° S-SW 15.48 km/h 15.4 °C 60.5 % 1014.72 hPa
29.07.2021 00:40:00 12.27 km/h 216.3 ° SW 14.4 km/h 15.4 °C 60.5 % 1014.62 hPa
29.07.2021 00:35:17 12.21 km/h 218.2 ° SW 16.2 km/h 15.5 °C 60.5 % 1014.72 hPa
29.07.2021 00:30:33 11.6 km/h 216.3 ° SW 14.76 km/h 15.5 °C 61 % 1014.82 hPa
29.07.2021 00:25:50 10.69 km/h 217.8 ° SW 13.68 km/h 15.6 °C 60.5 % 1014.82 hPa
29.07.2021 00:21:07 10.25 km/h 214 ° SW 13.32 km/h 15.6 °C 60.5 % 1014.72 hPa
29.07.2021 00:16:24 14.17 km/h 221.8 ° SW 18.72 km/h 15.6 °C 60.5 % 1014.82 hPa
29.07.2021 00:11:41 13.92 km/h 213.2 ° S-SW 17.28 km/h 15.5 °C 60.5 % 1014.72 hPa
29.07.2021 00:06:57 12.29 km/h 216.3 ° SW 14.04 km/h 15.5 °C 60 % 1014.82 hPa
29.07.2021 00:02:14 12.81 km/h 217.4 ° SW 17.64 km/h 15.5 °C 60.5 % 1014.82 hPa
28.07.2021 23:57:31 11.71 km/h 215.5 ° SW 15.48 km/h 15.5 °C 60.5 % 1014.72 hPa
28.07.2021 23:52:48 15.14 km/h 213.2 ° S-SW 17.64 km/h 15.5 °C 60.5 % 1014.82 hPa
28.07.2021 23:48:05 12.24 km/h 207.7 ° S-SW 16.2 km/h 15.5 °C 60 % 1014.72 hPa
28.07.2021 23:43:21 15.71 km/h 212.9 ° S-SW 19.08 km/h 15.5 °C 60.5 % 1014.72 hPa
28.07.2021 23:38:38 12.25 km/h 212.9 ° S-SW 15.84 km/h 15.5 °C 60.5 % 1014.72 hPa
28.07.2021 23:33:55 13.73 km/h 208.5 ° S-SW 15.84 km/h 15.5 °C 60 % 1014.82 hPa
28.07.2021 23:29:12 14.08 km/h 211.1 ° S-SW 19.44 km/h 15.5 °C 59.5 % 1014.82 hPa
28.07.2021 23:24:29 13.42 km/h 212.1 ° S-SW 16.92 km/h 15.5 °C 60 % 1014.62 hPa
28.07.2021 23:19:45 13.3 km/h 213.6 ° S-SW 15.48 km/h 15.5 °C 61 % 1014.72 hPa
28.07.2021 23:15:02 11.93 km/h 214.6 ° SW 15.48 km/h 15.5 °C 60.5 % 1014.72 hPa
28.07.2021 23:10:19 11.53 km/h 213.8 ° SW 18 km/h 15.6 °C 60 % 1014.72 hPa
28.07.2021 23:05:36 11.83 km/h 211.3 ° S-SW 14.4 km/h 15.6 °C 60 % 1014.72 hPa
28.07.2021 23:00:53 11.79 km/h 207.7 ° S-SW 14.04 km/h 15.7 °C 60 % 1014.72 hPa
28.07.2021 22:56:09 13.38 km/h 215.7 ° SW 15.84 km/h 15.7 °C 60 % 1014.72 hPa
28.07.2021 22:51:26 12.45 km/h 216.1 ° SW 17.64 km/h 15.7 °C 60 % 1014.82 hPa
28.07.2021 22:46:43 13.42 km/h 215.7 ° SW 15.48 km/h 15.8 °C 60 % 1014.62 hPa
28.07.2021 22:42:00 11.32 km/h 216.5 ° SW 14.76 km/h 15.8 °C 60 % 1014.82 hPa
28.07.2021 22:37:16 14.13 km/h 220.3 ° SW 15.48 km/h 15.9 °C 60 % 1014.72 hPa
28.07.2021 22:32:33 14.36 km/h 220.5 ° SW 19.44 km/h 15.9 °C 59.5 % 1014.72 hPa
28.07.2021 22:27:50 11.64 km/h 212.1 ° S-SW 15.84 km/h 16 °C 60 % 1014.62 hPa
28.07.2021 22:23:07 9.95 km/h 210.6 ° S-SW 12.96 km/h 16 °C 59.5 % 1014.52 hPa
28.07.2021 22:18:23 7.11 km/h 203.9 ° S-SW 9 km/h 16.1 °C 59.5 % 1014.62 hPa
28.07.2021 22:13:40 6.03 km/h 206.6 ° S-SW 8.28 km/h 16.2 °C 59.5 % 1014.62 hPa
28.07.2021 22:08:56 8.67 km/h 212.9 ° S-SW 11.52 km/h 16.3 °C 59.5 % 1014.52 hPa
28.07.2021 22:04:13 8.15 km/h 214 ° SW 9.72 km/h 16.3 °C 59.5 % 1014.52 hPa
28.07.2021 21:59:29 8.8 km/h 216.1 ° SW 11.88 km/h 16.3 °C 60 % 1014.62 hPa
28.07.2021 21:54:46 10.1 km/h 215.3 ° SW 11.52 km/h 16.3 °C 59.5 % 1014.42 hPa
28.07.2021 21:50:03 12.98 km/h 220.7 ° SW 15.84 km/h 16.3 °C 59.5 % 1014.52 hPa
28.07.2021 21:45:19 12.15 km/h 215.5 ° SW 16.2 km/h 16.3 °C 59.5 % 1014.42 hPa
28.07.2021 21:40:36 12.68 km/h 212.1 ° S-SW 16.2 km/h 16.3 °C 59.5 % 1014.42 hPa
28.07.2021 21:35:53 12.02 km/h 210 ° S-SW 14.04 km/h 16.3 °C 59.5 % 1014.42 hPa